createdAt,value
2022-09-02T00:00:07.819Z,44.45
2022-09-02T00:02:35.690Z,44.53
2022-09-02T00:05:03.721Z,44.96
2022-09-02T00:07:31.597Z,44.45
2022-09-02T00:10:00.599Z,44.43
2022-09-02T00:12:28.269Z,44.56
2022-09-02T00:14:56.345Z,44.77
2022-09-02T00:17:23.967Z,44.84
2022-09-02T00:19:56.009Z,44.67
2022-09-02T00:22:24.091Z,44.70
2022-09-02T00:24:52.046Z,44.89
2022-09-02T00:27:19.745Z,44.53
2022-09-02T00:29:47.422Z,45.35
2022-09-02T00:32:15.128Z,45.71
2022-09-02T00:34:42.825Z,45.01
2022-09-02T00:37:10.837Z,44.90
2022-09-02T00:39:38.542Z,45.56
2022-09-02T00:42:06.992Z,45.31
2022-09-02T00:44:35.043Z,45.68
2022-09-02T00:47:03.173Z,45.61
2022-09-02T00:49:30.966Z,45.91
2022-09-02T00:51:58.634Z,45.70
2022-09-02T00:54:26.507Z,46.02
2022-09-02T00:56:55.869Z,46.20
2022-09-02T00:59:23.581Z,45.87
2022-09-02T01:01:51.308Z,46.58
2022-09-02T01:04:19.105Z,46.21
2022-09-02T01:06:47.107Z,46.97
2022-09-02T01:09:16.238Z,46.94
2022-09-02T01:11:44.098Z,46.90
2022-09-02T01:14:13.882Z,46.90
2022-09-02T01:16:42.961Z,46.74
2022-09-02T01:19:10.744Z,47.18
2022-09-02T01:21:39.181Z,46.93
2022-09-02T01:24:07.233Z,46.84
2022-09-02T01:26:35.203Z,47.66
2022-09-02T01:29:03.020Z,47.29
2022-09-02T01:31:30.752Z,47.11
2022-09-02T01:33:59.695Z,46.85
2022-09-02T01:36:27.750Z,47.10
2022-09-02T01:38:55.677Z,47.14
2022-09-02T01:41:23.434Z,46.70
2022-09-02T01:43:51.135Z,46.91
2022-09-02T01:46:19.263Z,47.33
2022-09-02T01:48:46.990Z,47.26
2022-09-02T01:51:14.747Z,46.71
2022-09-02T01:53:42.430Z,47.07
2022-09-02T01:56:10.853Z,47.24
2022-09-02T01:58:38.557Z,46.98
2022-09-02T02:01:06.269Z,47.42
2022-09-02T02:03:36.052Z,47.61
2022-09-02T02:06:06.879Z,47.11
2022-09-02T02:08:34.614Z,47.36
2022-09-02T02:11:02.274Z,47.86
2022-09-02T02:13:30.098Z,47.52
2022-09-02T02:15:58.788Z,48.07
2022-09-02T02:18:26.663Z,47.29
2022-09-02T02:20:54.327Z,48.03
2022-09-02T02:23:22.720Z,47.65
2022-09-02T02:25:50.956Z,48.01
2022-09-02T02:28:18.738Z,48.24
2022-09-02T02:30:46.399Z,47.78
2022-09-02T02:33:14.072Z,47.58
2022-09-02T02:35:42.127Z,47.57
2022-09-02T02:38:10.377Z,48.08
2022-09-02T02:40:42.179Z,47.50
2022-09-02T02:43:09.843Z,47.70
2022-09-02T02:45:37.664Z,47.97
2022-09-02T02:48:05.267Z,47.30
2022-09-02T02:50:33.178Z,47.66
2022-09-02T02:53:02.881Z,47.70
2022-09-02T02:55:30.631Z,47.77
2022-09-02T02:57:58.322Z,47.77
2022-09-02T03:00:25.976Z,47.85
2022-09-02T03:02:53.900Z,47.57
2022-09-02T03:05:21.675Z,47.10
2022-09-02T03:07:49.343Z,47.87
2022-09-02T03:10:17.000Z,47.73
2022-09-02T03:12:47.772Z,47.93
2022-09-02T03:15:17.259Z,47.92
2022-09-02T03:17:44.867Z,48.08
2022-09-02T03:20:12.535Z,47.65
2022-09-02T03:22:40.487Z,47.51
2022-09-02T03:25:08.142Z,47.53
2022-09-02T03:27:35.963Z,47.81
2022-09-02T03:30:03.642Z,48.14
2022-09-02T03:32:31.342Z,47.73
2022-09-02T03:34:59.106Z,48.01
2022-09-02T03:37:26.753Z,48.01
2022-09-02T03:39:54.350Z,48.05
2022-09-02T03:42:22.355Z,47.75
2022-09-02T03:44:50.181Z,48.34
2022-09-02T03:47:20.743Z,48.16
2022-09-02T03:49:52.273Z,48.00
2022-09-02T03:52:20.836Z,48.23
2022-09-02T03:54:49.116Z,48.28
2022-09-02T03:57:16.781Z,48.29
2022-09-02T03:59:44.796Z,48.68
2022-09-02T04:02:12.600Z,48.49
2022-09-02T04:04:40.440Z,48.56
2022-09-02T04:07:09.494Z,48.49
2022-09-02T04:09:37.107Z,48.36
2022-09-02T04:12:04.810Z,48.66
2022-09-02T04:14:32.417Z,48.62
2022-09-02T04:17:00.460Z,48.56
2022-09-02T04:19:28.080Z,48.26
2022-09-02T04:21:55.791Z,48.44
2022-09-02T04:24:23.485Z,48.58
2022-09-02T04:26:51.436Z,48.37
2022-09-02T04:29:19.126Z,48.42
2022-09-02T04:31:46.891Z,48.21
2022-09-02T04:34:14.885Z,48.29
2022-09-02T04:36:42.872Z,48.30
2022-09-02T04:39:10.622Z,48.17
2022-09-02T04:41:38.269Z,48.03
2022-09-02T04:44:06.682Z,47.93
2022-09-02T04:46:35.211Z,48.02
2022-09-02T04:49:03.010Z,48.20
2022-09-02T04:51:30.668Z,48.15
2022-09-02T04:53:58.269Z,48.10
2022-09-02T04:56:26.328Z,47.94
2022-09-02T04:58:54.012Z,47.51
2022-09-02T05:01:22.368Z,47.82
2022-09-02T05:03:50.068Z,47.45
2022-09-02T05:09:26.911Z,48.23
2022-09-02T05:11:57.530Z,48.10
2022-09-02T05:14:25.286Z,48.02
2022-09-02T05:16:54.067Z,47.65
2022-09-02T05:19:23.489Z,47.85
2022-09-02T05:21:51.198Z,47.29
2022-09-02T05:24:21.183Z,47.25
2022-09-02T05:26:52.180Z,47.04
2022-09-02T05:29:20.711Z,47.07
2022-09-02T05:31:49.011Z,46.65
2022-09-02T05:34:16.608Z,46.59
2022-09-02T05:36:44.598Z,46.39
2022-09-02T05:39:12.446Z,46.44
2022-09-02T05:41:40.122Z,46.53
2022-09-02T05:44:07.864Z,46.08
2022-09-02T05:46:35.970Z,45.69
2022-09-02T05:49:10.262Z,45.32
2022-09-02T05:51:38.469Z,45.45
2022-09-02T05:54:06.180Z,45.46
2022-09-02T05:56:33.886Z,45.33
2022-09-02T05:59:01.726Z,45.01
2022-09-02T06:01:30.217Z,44.78
2022-09-02T06:03:58.998Z,44.45
2022-09-02T06:06:27.670Z,44.11
2022-09-02T06:08:55.390Z,44.56
2022-09-02T06:11:23.019Z,44.31
2022-09-02T06:13:53.216Z,44.21
2022-09-02T06:16:21.877Z,44.13
2022-09-02T06:18:49.710Z,43.94
2022-09-02T06:21:17.529Z,44.16
2022-09-02T06:23:45.180Z,43.87
2022-09-02T06:26:13.137Z,43.90
2022-09-02T06:28:41.027Z,43.63
2022-09-02T06:31:08.845Z,43.56
2022-09-02T06:33:36.545Z,43.83
2022-09-02T06:36:04.459Z,44.11
2022-09-02T06:38:32.188Z,44.12
2022-09-02T06:40:59.998Z,44.22
2022-09-02T06:43:28.468Z,44.57
2022-09-02T06:46:10.575Z,43.90
2022-09-02T06:48:38.304Z,43.90
2022-09-02T06:51:06.050Z,43.52
2022-09-02T06:53:33.934Z,43.74
2022-09-02T06:56:01.650Z,43.66
2022-09-02T06:58:29.271Z,43.40
2022-09-02T07:00:57.124Z,43.42
2022-09-02T07:03:42.330Z,43.30
2022-09-02T07:06:10.447Z,43.40
2022-09-02T07:08:38.614Z,43.09
2022-09-02T07:11:06.417Z,43.12
2022-09-02T07:13:34.159Z,43.23
2022-09-02T07:16:02.144Z,42.90
2022-09-02T07:18:29.960Z,42.99
2022-09-02T07:20:57.630Z,42.94
2022-09-02T07:23:25.385Z,42.40
2022-09-02T07:25:55.490Z,42.43
2022-09-02T07:28:23.195Z,42.27
2022-09-02T07:30:58.998Z,42.51
2022-09-02T07:33:27.404Z,42.67
2022-09-02T07:35:55.412Z,42.32
2022-09-02T07:38:23.097Z,42.30
2022-09-02T07:40:50.923Z,42.52
2022-09-02T07:43:25.012Z,42.49
2022-09-02T07:45:55.859Z,42.39
2022-09-02T07:48:23.508Z,42.30
2022-09-02T07:50:52.118Z,42.21
2022-09-02T07:53:19.981Z,42.17
2022-09-02T07:55:48.292Z,41.92
2022-09-02T07:58:16.250Z,42.21
2022-09-02T08:00:43.920Z,42.01
2022-09-02T08:03:11.811Z,42.21
2022-09-02T08:05:39.710Z,41.99
2022-09-02T08:08:07.411Z,42.14
2022-09-02T08:10:35.266Z,41.85
2022-09-02T08:13:02.991Z,41.68
2022-09-02T08:15:31.810Z,41.48
2022-09-02T08:17:59.557Z,41.39
2022-09-02T08:20:27.382Z,41.77
2022-09-02T08:23:05.285Z,41.74
2022-09-02T08:25:41.059Z,40.94
2022-09-02T08:28:08.836Z,41.22
2022-09-02T08:30:36.445Z,40.72
2022-09-02T08:33:04.167Z,40.65
2022-09-02T08:35:32.108Z,40.82
2022-09-02T08:37:59.795Z,40.38
2022-09-02T08:40:29.840Z,40.64
2022-09-02T08:42:57.609Z,40.60
2022-09-02T08:45:26.122Z,39.96
2022-09-02T08:47:53.969Z,40.26
2022-09-02T08:50:21.631Z,39.83
2022-09-02T08:52:49.346Z,39.74
2022-09-02T08:55:17.376Z,39.30
2022-09-02T08:57:45.126Z,39.47
2022-09-02T09:00:12.855Z,39.33
2022-09-02T09:02:46.639Z,39.16
2022-09-02T09:05:15.477Z,39.22
2022-09-02T09:07:43.485Z,38.77
2022-09-02T09:10:11.151Z,38.35
2022-09-02T09:12:39.040Z,38.24
2022-09-02T09:15:06.692Z,38.47
2022-09-02T09:17:34.672Z,37.92
2022-09-02T09:20:02.811Z,38.51
2022-09-02T09:22:31.531Z,37.75
2022-09-02T09:24:59.185Z,37.39
2022-09-02T09:27:27.385Z,37.16
2022-09-02T09:29:55.366Z,37.39
2022-09-02T09:32:23.302Z,37.04
2022-09-02T09:34:51.940Z,36.48
2022-09-02T09:37:19.672Z,36.66
2022-09-02T09:39:47.420Z,37.02
2022-09-02T09:42:15.147Z,36.71
2022-09-02T09:44:45.202Z,36.44
2022-09-02T09:47:17.425Z,36.74
2022-09-02T09:49:45.724Z,36.71
2022-09-02T09:52:13.482Z,36.78
2022-09-02T09:54:41.261Z,36.65
2022-09-02T09:57:08.865Z,36.25
2022-09-02T09:59:39.039Z,35.98
2022-09-02T10:02:06.801Z,36.04
2022-09-02T10:04:50.013Z,35.46
2022-09-02T10:07:18.036Z,35.19
2022-09-02T10:09:45.826Z,35.26
2022-09-02T10:12:13.570Z,34.39
2022-09-02T10:14:41.640Z,34.02
2022-09-02T10:17:09.360Z,33.94
2022-09-02T10:19:37.216Z,33.38
2022-09-02T10:22:04.911Z,33.13
2022-09-02T10:24:33.690Z,32.64
2022-09-02T10:27:01.392Z,32.13
2022-09-02T10:29:29.195Z,32.00
2022-09-02T10:31:57.016Z,31.28
2022-09-02T10:34:24.994Z,30.65
2022-09-02T10:36:53.176Z,30.18
2022-09-02T10:39:21.598Z,29.23
2022-09-02T10:41:49.283Z,28.27
2022-09-02T10:44:16.920Z,26.40
2022-09-02T10:46:45.782Z,27.09
2022-09-02T10:49:13.978Z,26.25
2022-09-02T10:51:41.831Z,26.37
2022-09-02T10:54:11.155Z,25.61
2022-09-02T10:56:39.094Z,25.34
2022-09-02T10:59:07.193Z,26.38
2022-09-02T11:01:34.926Z,26.34
2022-09-02T11:04:02.578Z,25.56
2022-09-02T11:06:45.760Z,26.60
2022-09-02T11:09:19.442Z,27.22
2022-09-02T11:11:47.165Z,28.29
2022-09-02T11:14:16.853Z,29.11
2022-09-02T11:16:48.792Z,29.59
2022-09-02T11:19:16.426Z,29.94
2022-09-02T11:21:44.260Z,29.54
2022-09-02T11:24:12.106Z,29.53
2022-09-02T11:26:40.708Z,29.99
2022-09-02T11:29:08.323Z,29.85
2022-09-02T11:31:39.107Z,30.42
2022-09-02T11:34:07.239Z,31.05
2022-09-02T11:36:35.239Z,31.08
2022-09-02T11:39:03.302Z,29.44
2022-09-02T11:41:33.689Z,27.55
2022-09-02T11:44:03.540Z,25.48
2022-09-02T11:46:34.160Z,24.30
2022-09-02T11:49:01.914Z,24.13
2022-09-02T11:51:29.549Z,24.86
2022-09-02T11:53:57.436Z,25.75
2022-09-02T11:56:25.949Z,27.36
2022-09-02T11:58:53.772Z,28.32
2022-09-02T12:01:25.610Z,27.73
2022-09-02T12:04:34.512Z,28.28
2022-09-02T12:06:41.859Z,28.55
2022-09-02T12:09:09.786Z,29.14
2022-09-02T12:11:39.022Z,28.91
2022-09-02T12:14:08.044Z,27.95
2022-09-02T12:16:36.245Z,27.38
2022-09-02T12:19:07.902Z,26.03
2022-09-02T12:21:36.039Z,24.06
2022-09-02T12:24:04.087Z,23.41
2022-09-02T12:26:31.733Z,23.00
2022-09-02T12:28:59.804Z,23.16
2022-09-02T12:31:28.083Z,24.13
2022-09-02T12:33:55.871Z,25.33
2022-09-02T12:36:27.595Z,25.87
2022-09-02T12:38:56.090Z,26.12
2022-09-02T12:41:24.440Z,27.31
2022-09-02T12:43:52.162Z,27.41
2022-09-02T12:46:19.894Z,28.53
2022-09-02T12:48:49.178Z,27.97
2022-09-02T12:51:17.375Z,28.83
2022-09-02T12:53:45.159Z,28.44
2022-09-02T12:56:12.975Z,28.49
2022-09-02T12:58:41.498Z,29.24
2022-09-02T13:01:09.464Z,29.25
2022-09-02T13:03:37.177Z,29.66
2022-09-02T13:06:05.865Z,29.34
2022-09-02T13:08:33.515Z,29.26
2022-09-02T13:11:01.319Z,29.61
2022-09-02T13:13:29.215Z,30.03
2022-09-02T13:15:57.128Z,30.41
2022-09-02T13:18:24.925Z,30.20
2022-09-02T13:20:56.037Z,30.56
2022-09-02T13:23:31.485Z,29.69
2022-09-02T13:25:59.615Z,29.90
2022-09-02T13:28:27.292Z,30.23
2022-09-02T13:30:55.014Z,30.48
2022-09-02T13:33:22.793Z,30.27
2022-09-02T13:35:50.823Z,30.04
2022-09-02T13:38:20.931Z,30.00
2022-09-02T13:40:50.504Z,30.12
2022-09-02T13:43:18.509Z,29.83
2022-09-02T13:45:46.198Z,29.50
2022-09-02T13:48:14.016Z,29.73
2022-09-02T13:50:43.110Z,29.57
2022-09-02T13:55:58.769Z,28.39
2022-09-02T13:58:27.077Z,27.80
2022-09-02T14:00:59.698Z,27.26
2022-09-02T14:03:30.023Z,27.21
2022-09-02T14:06:00.216Z,26.90
2022-09-02T14:08:28.944Z,27.01
2022-09-02T14:10:56.878Z,26.28
2022-09-02T14:13:24.579Z,26.95
2022-09-02T14:15:53.236Z,26.92
2022-09-02T14:18:21.103Z,26.88
2022-09-02T14:20:48.850Z,26.14
2022-09-02T14:23:16.649Z,26.05
2022-09-02T14:25:44.679Z,25.20
2022-09-02T14:28:13.591Z,24.18
2022-09-02T14:30:41.448Z,24.80
2022-09-02T14:33:09.206Z,24.83
2022-09-02T14:35:37.300Z,25.99
2022-09-02T14:38:05.007Z,26.18
2022-09-02T14:40:32.744Z,25.46
2022-09-02T14:43:00.507Z,25.68
2022-09-02T14:45:28.521Z,25.80
2022-09-02T14:47:56.264Z,26.19
2022-09-02T14:50:24.025Z,27.29
2022-09-02T14:52:51.883Z,28.25
2022-09-02T14:55:19.917Z,27.69
2022-09-02T14:57:47.621Z,28.06
2022-09-02T15:00:17.978Z,28.39
2022-09-02T15:02:46.604Z,28.69
2022-09-02T15:05:15.036Z,28.60
2022-09-02T15:07:42.854Z,27.94
2022-09-02T15:10:10.571Z,26.93
2022-09-02T15:12:38.236Z,26.76
2022-09-02T15:15:06.240Z,26.77
2022-09-02T15:17:34.622Z,26.29
2022-09-02T15:20:02.325Z,26.34
2022-09-02T15:22:30.258Z,25.38
2022-09-02T15:24:58.383Z,24.81
2022-09-02T15:27:26.177Z,24.57
2022-09-02T15:29:53.928Z,25.84
2022-09-02T15:32:21.831Z,26.74
2022-09-02T15:34:49.777Z,26.51
2022-09-02T15:37:17.647Z,24.96
2022-09-02T15:39:45.354Z,24.04
2022-09-02T15:42:13.263Z,24.65
2022-09-02T15:44:42.095Z,25.07
2022-09-02T15:47:09.856Z,25.21
2022-09-02T15:49:37.732Z,24.84
2022-09-02T15:52:06.310Z,24.88
2022-09-02T15:54:34.972Z,25.99
2022-09-02T15:57:03.543Z,26.81
2022-09-02T15:59:31.328Z,26.08
2022-09-02T16:01:59.640Z,25.91
2022-09-02T16:04:29.573Z,26.72
2022-09-02T16:06:58.028Z,26.01
2022-09-02T16:09:25.865Z,26.50
2022-09-02T16:11:53.796Z,27.58
2022-09-02T16:14:21.668Z,27.89
2022-09-02T16:16:49.557Z,28.70
2022-09-02T16:19:18.016Z,29.16
2022-09-02T16:21:45.736Z,29.72
2022-09-02T16:24:13.419Z,29.74
2022-09-02T16:26:41.116Z,29.98
2022-09-02T16:29:08.846Z,30.10
2022-09-02T16:31:38.042Z,30.95
2022-09-02T16:34:05.734Z,31.09
2022-09-02T16:36:33.821Z,30.85
2022-09-02T16:39:02.139Z,31.00
2022-09-02T16:41:29.795Z,31.94
2022-09-02T16:43:57.570Z,32.02
2022-09-02T16:46:25.674Z,31.90
2022-09-02T16:48:53.437Z,32.13
2022-09-02T16:51:21.177Z,31.93
2022-09-02T16:53:48.981Z,31.82
2022-09-02T16:56:18.340Z,31.83
2022-09-02T16:58:46.115Z,31.92
2022-09-02T17:01:13.954Z,31.92
2022-09-02T17:03:41.700Z,31.82
2022-09-02T17:06:10.586Z,32.21
2022-09-02T17:08:38.794Z,31.73
2022-09-02T17:11:06.522Z,31.97
2022-09-02T17:13:34.296Z,31.94
2022-09-02T17:16:02.350Z,32.00
2022-09-02T17:18:30.151Z,32.24
2022-09-02T17:20:57.978Z,32.40
2022-09-02T17:23:25.786Z,32.26
2022-09-02T17:25:53.889Z,32.31
2022-09-02T17:28:21.642Z,32.48
2022-09-02T17:30:49.443Z,32.29
2022-09-02T17:33:17.200Z,32.55
2022-09-02T17:35:45.842Z,32.91
2022-09-02T17:38:13.581Z,32.13
2022-09-02T17:40:58.925Z,32.86
2022-09-02T17:43:28.114Z,32.30
2022-09-02T17:45:55.774Z,32.93
2022-09-02T17:48:53.884Z,32.67
2022-09-02T17:51:11.915Z,32.61
2022-09-02T17:53:40.348Z,33.12
2022-09-02T17:56:08.122Z,33.42
2022-09-02T17:58:37.846Z,33.03
2022-09-02T18:01:10.781Z,33.24
2022-09-02T18:03:38.555Z,33.48
2022-09-02T18:06:07.128Z,33.70
2022-09-02T18:08:34.850Z,33.51
2022-09-02T18:11:05.433Z,34.19
2022-09-02T18:13:33.252Z,33.94
2022-09-02T18:16:01.195Z,33.86
2022-09-02T18:18:28.949Z,34.42
2022-09-02T18:20:56.734Z,34.26
2022-09-02T18:23:24.427Z,34.47
2022-09-02T18:25:53.440Z,34.48
2022-09-02T18:28:26.050Z,35.05
2022-09-02T18:30:55.005Z,34.70
2022-09-02T18:33:23.510Z,35.03
2022-09-02T18:35:51.538Z,35.28
2022-09-02T18:38:19.367Z,35.23
2022-09-02T18:40:47.280Z,34.94
2022-09-02T18:43:15.584Z,35.38
2022-09-02T18:45:43.672Z,35.53
2022-09-02T18:48:11.431Z,35.49
2022-09-02T18:50:55.320Z,35.93
2022-09-02T18:53:22.986Z,35.62
2022-09-02T18:55:51.050Z,35.85
2022-09-02T18:58:19.328Z,35.87
2022-09-02T19:00:49.568Z,35.94
2022-09-02T19:03:17.513Z,35.76
2022-09-02T19:05:45.433Z,35.94
2022-09-02T19:08:30.563Z,36.53
2022-09-02T19:10:58.411Z,36.07
2022-09-02T19:13:30.116Z,36.57
2022-09-02T19:16:02.020Z,36.73
2022-09-02T19:18:32.426Z,36.75
2022-09-02T19:21:00.206Z,36.64
2022-09-02T19:23:28.294Z,36.83
2022-09-02T19:25:55.982Z,36.75
2022-09-02T19:28:23.814Z,37.15
2022-09-02T19:30:51.648Z,36.81
2022-09-02T19:33:19.313Z,37.08
2022-09-02T19:35:47.816Z,37.27
2022-09-02T19:38:17.909Z,37.24
2022-09-02T19:40:45.589Z,37.59
2022-09-02T19:43:13.976Z,37.61
2022-09-02T19:45:41.768Z,37.53
2022-09-02T19:48:11.349Z,38.04
2022-09-02T19:50:41.002Z,37.67
2022-09-02T19:53:08.885Z,37.88
2022-09-02T19:55:36.678Z,38.43
2022-09-02T19:58:04.572Z,38.01
2022-09-02T20:00:33.466Z,38.37
2022-09-02T20:03:01.385Z,38.75
2022-09-02T20:05:31.036Z,38.21
2022-09-02T20:07:58.722Z,38.39
2022-09-02T20:10:28.016Z,38.61
2022-09-02T20:12:57.657Z,38.60
2022-09-02T20:15:25.375Z,38.67
2022-09-02T20:17:53.055Z,38.67
2022-09-02T20:20:21.910Z,38.79
2022-09-02T20:22:49.661Z,39.08
2022-09-02T20:25:17.391Z,38.81
2022-09-02T20:27:45.092Z,39.19
2022-09-02T20:30:12.994Z,39.11
2022-09-02T20:32:41.499Z,39.53
2022-09-02T20:35:10.565Z,39.47
2022-09-02T20:37:38.174Z,39.64
2022-09-02T20:40:06.319Z,40.24
2022-09-02T20:42:34.046Z,39.97
2022-09-02T20:45:02.502Z,39.72
2022-09-02T20:47:30.213Z,40.04
2022-09-02T20:49:58.171Z,40.07
2022-09-02T20:52:26.351Z,40.17
2022-09-02T20:54:56.901Z,40.27
2022-09-02T20:57:24.679Z,40.43
2022-09-02T20:59:52.352Z,39.94
2022-09-02T21:02:20.179Z,40.18
2022-09-02T21:04:48.281Z,40.46
2022-09-02T21:07:16.035Z,40.55
2022-09-02T21:09:43.663Z,40.33
2022-09-02T21:12:12.086Z,40.28
2022-09-02T21:14:40.049Z,40.56
2022-09-02T21:17:07.727Z,40.34
2022-09-02T21:19:35.347Z,40.48
2022-09-02T21:22:03.236Z,40.40
2022-09-02T21:24:31.102Z,40.72
2022-09-02T21:26:58.825Z,40.89
2022-09-02T21:29:26.452Z,41.10
2022-09-02T21:31:54.060Z,41.06
2022-09-02T21:34:21.778Z,41.18
2022-09-02T21:36:49.666Z,41.09
2022-09-02T21:39:17.492Z,40.83
2022-09-02T21:41:45.156Z,40.98
2022-09-02T21:44:12.873Z,40.76
2022-09-02T21:46:40.959Z,40.66
2022-09-02T21:49:08.795Z,40.71
2022-09-02T21:51:37.137Z,40.51
2022-09-02T21:54:04.794Z,40.67
2022-09-02T21:56:33.644Z,40.96
2022-09-02T21:59:03.818Z,40.77
2022-09-02T22:01:35.427Z,41.07
2022-09-02T22:04:04.272Z,40.51
2022-09-02T22:06:32.622Z,40.81
2022-09-02T22:09:00.264Z,40.54
2022-09-02T22:11:27.988Z,40.75
2022-09-02T22:13:55.750Z,40.29
2022-09-02T22:16:23.822Z,40.34
2022-09-02T22:18:54.397Z,40.67
2022-09-02T22:21:22.383Z,40.61
2022-09-02T22:23:52.979Z,40.48
2022-09-02T22:26:20.651Z,40.53
2022-09-02T22:28:48.737Z,40.69
2022-09-02T22:31:17.151Z,40.66
2022-09-02T22:33:46.280Z,40.59
2022-09-02T22:36:14.800Z,40.47
2022-09-02T22:38:44.371Z,40.15
2022-09-02T22:41:12.417Z,40.55
2022-09-02T22:43:41.492Z,40.59
2022-09-02T22:46:27.342Z,40.18
2022-09-02T22:49:12.449Z,40.76
2022-09-02T22:51:57.453Z,40.30
2022-09-02T22:54:25.182Z,40.64
2022-09-02T22:56:52.839Z,40.08
2022-09-02T22:59:20.552Z,40.44
2022-09-02T23:01:48.290Z,40.67
2022-09-02T23:04:16.149Z,40.14
2022-09-02T23:06:46.422Z,40.78
2022-09-02T23:09:15.923Z,40.19
2022-09-02T23:11:44.143Z,40.78
2022-09-02T23:14:11.742Z,40.73
2022-09-02T23:16:39.921Z,40.83
2022-09-02T23:19:07.892Z,40.65
2022-09-02T23:21:37.415Z,40.91
2022-09-02T23:24:05.107Z,40.69
2022-09-02T23:26:34.111Z,40.74
2022-09-02T23:29:01.862Z,40.83
2022-09-02T23:31:31.292Z,40.61
2022-09-02T23:33:59.178Z,40.77
2022-09-02T23:36:27.444Z,40.30
2022-09-02T23:38:55.102Z,41.21
2022-09-02T23:41:24.041Z,40.81
2022-09-02T23:43:51.868Z,41.18
2022-09-02T23:46:20.176Z,40.50
2022-09-02T23:48:48.006Z,41.21
2022-09-02T23:51:15.719Z,40.84
2022-09-02T23:53:43.408Z,40.63
2022-09-02T23:56:11.630Z,40.90
2022-09-02T23:58:41.080Z,41.27
